Qdoba DINO Trail Run 7 McCormick's Creek 2013

Overall Finish List

November 09, 2013


Do INdiana Off-road DINO, LLC

15k

Place Name City Bib No Gender Age Group Total Time
1 Micah Mobley Ellettsville IN 1837 M 1 Overall 1:08:24.1
2 Vincent Corona Fort Wayne IN 1002 M 2 Overall 1:14:24.9
3 Clayton Wilson Greencastle IN 1878 M 3 Overall 1:14:59.6
4 Tim Miller Bedford IN 1869 M 1 Masters 1:15:00.7
5 Emma Wilson Greencastle IN 1877 F 1 Overall 1:15:05.2
6 Mike Morris Terre Haute IN 1904 M 1 35-39 1:16:21.4
7 Mike Bishop Twin Lakes WI 1892 M 1 40-44 1:16:31.1
8 Michael Clark Greenwood IN 1911 M 1 30-34 1:18:33.7
9 John Stille 1901 M 1 50-54 1:18:44.4
10 Ethan Michelson Bloomington IN 1914 M 2 40-44 1:18:58.2
11 Corinne Innes Bloomington IN 1898 F 2 Overall 1:19:35.4
12 Kingdon Offenbacker Zionsville IN 1900 M 3 40-44 1:20:02.1
13 Bob Andresen Cedar Rapids IA 1820 M 2 35-39 1:20:18.8
14 Richard Walter Bloomington IN 1927 M 3 35-39 1:21:23.5
15 Chad Martin Fishers IN 1124 M 4 35-39 1:22:11.4
16 Padraic Kenney Bloomington IN 1910 M 2 50-54 1:24:26.3
17 Brian Smith Greencastle IN 1834 M 1 25-29 1:24:55.3
18 Adam Hirsh Indianapolis IN 1485 M 2 30-34 1:24:56.1
19 Jonathan Murray Indianapolis IN 1005 M 3 30-34 1:25:32.7
20 Matthew Weathers Lafayette IN 1909 M 4 30-34 1:25:43.9
21 David Temple Carmel IN 1842 M 4 40-44 1:25:48.4
22 Greg Dikos Indianapolis IN 1871 M 5 35-39 1:25:58.6
23 Todd Sears Carmel IN 1929 M 1 45-49 1:26:01.7
24 Ross Christoph Indianapolis IN 1256 M 1 55-59 1:26:36.2
25 Louis Wonning Seymour IN 1895 M 5 30-34 1:27:11.7
26 Kyle Thocher Columbus IN 1897 M 2 25-29 1:27:11.9
27 Steve Kulwicki Mishawaka IN 1829 M 6 30-34 1:27:46.9
28 John Basham Terre Haute IN 1908 M 7 30-34 1:28:09.2
29 Matt Bail Indianapolis IN 1890 M 6 35-39 1:28:30.1
30 Shonn Parmeter Logansport IN 1850 M 2 45-49 1:28:42.9
31 Shane Walters Columbus IN 1880 M 5 40-44 1:28:56.5
32 Kevin Egan Indianapolis IN 1885 M 3 45-49 1:29:05.8
33 Scott Forthofer Bloomington IN 1934 M 6 40-44 1:29:08.7
34 Patrick Saling Indianapolis IN 1816 M 1 13-15 1:29:15.7
35 Keven McIntosh Bloomfield IN 1856 M 8 30-34 1:29:39.1
36 Mike Feldman Fishers IN 1925 M 3 25-29 1:29:55.4
37 Jason Luchtefeld Robinson IL 1893 M 7 35-39 1:29:56.9
38 Steve Wallen Noblesville IN 1010 M 7 40-44 1:30:14.8
39 Kwin Abram Columbus IN 1128 M 8 40-44 1:31:26.4
40 Katy Goggin Indianapolis IN 1930 F 3 Overall 1:31:49.4
41 Mike Drennan Bloomington IN 1823 M 4 25-29 1:32:00.7
42 Nathan Otte Seymour IN 1830 M 9 30-34 1:32:34.6
43 Sarah Sanders Bloomington IN 1935 F 1 35-39 1:32:51.4
44 Ken Pangle Brookston IN 1804 M 3 50-54 1:33:02.2
45 Anthony Thoma Mooresville IN 1896 M 9 40-44 1:33:04.6
46 Lisette Laissie Robinson IL 1894 F 2 35-39 1:33:53.6
47 David Jacobs Little Rock AR 1822 M 1 20-24 1:34:21.4
48 Noriyuki Hanashiro Carmel IN 1671 M 2 55-59 1:34:32.6
49 Thomas Dalheim Williams IN 1832 M 4 45-49 1:34:37.7
50 Vernie Criswell Delphi IN 1329 M 1 60-64 1:34:43.8
51 Thomas Chute Indianapolis IN 1854 M 5 45-49 1:35:11.2
52 Katie Karnehm Marion IN 1859 F 1 30-34 1:35:39.9
53 Tim Esh Marion IN 1860 M 8 35-39 1:35:41.1
54 Paul Strack Plainfield IN 1886 M 5 25-29 1:35:56.9
55 Andrew Loeb Bloomington IN 1847 M 1 65-69 1:35:59.4
56 Lacey Morris 1905 F 2 30-34 1:36:13.1
57 Michael Wolfe Zionsville IN 1129 M 9 35-39 1:36:38.4
58 Christy Odeen Indianapolis IN 1845 F 1 Masters 1:37:26.3
59 Craig Stewart Bloomington IN 1861 M 4 50-54 1:37:37.2
60 Rich Smith Westfield IN 1922 M 3 55-59 1:37:48.2
61 Jonathan Foster Muncie IN 1839 M 6 25-29 1:38:14.7
62 Jim Gordon Indianapolis IN 1933 M 5 50-54 1:38:35.2
63 Zack Hamilton Greensburg IN 1903 M 7 25-29 1:38:45.4
64 Traci Dalheim Williams IN 1831 F 1 40-44 1:38:52.9
65 Alison Maloof Indianapolis IN 1913 F 3 30-34 1:39:25.1
66 Ken Milner Brownsburg IN 1853 M 6 45-49 1:39:59.4
67 Amber Bennett Indianapolis IN 1826 F 4 30-34 1:40:05.7
68 Daryl Hackler Ashmore IL 1836 M 4 55-59 1:40:34.1
69 Fred Ranly St Henry OH 1918 M 6 50-54 1:41:52.7
70 Heather Lake Bloomington IN 1916 F 2 40-44 1:41:55.7
71 Darrell Hewins Bloomington IN 1928 M 10 35-39 1:42:10.3
72 Doug Patty Lafayette IN 1881 M 7 50-54 1:42:15.2
73 Trent Hicks Greenwood IN 1872 M 7 45-49 1:42:16.8
74 Scott Tate Cicero IN 1923 M 10 40-44 1:42:33.1
75 Matthew Hertenstein Greencastle IN 1932 M 11 35-39 1:42:50.7
76 Julie Johnson Jasonville IN 1857 F 3 40-44 1:43:32.2
77 Thomas Corda Anderson IN 1117 M 5 55-59 1:44:04.1
78 Kathy Hammel Bedford IN 1866 F 1 55-59 1:44:15.5
79 Elaine Ranly St Henry OH 1917 F 1 25-29 1:44:25.2
80 Marci Wease Bloomington IN 1855 F 3 35-39 1:45:00.9
81 Yuko Nogami Indianapolis IN 1852 F 4 35-39 1:45:14.3
82 Seth Wonning Seymour IN 1899 M 12 35-39 1:45:29.9
83 Marc Hawley Mount Vernon IN 1879 M 2 60-64 1:45:39.0
84 Bob Pugh Carmel IN 1873 M 8 50-54 1:45:42.0
85 George Mankowski Bloomington IN 1848 M 11 40-44 1:45:46.9
86 Greg Julian Middletown IN 1907 M 6 55-59 1:46:32.6
87 Liz Demoss Bloomington IN 1884 F 1 20-24 1:48:35.6
88 Cindy Esham Mooresville IN 1931 F 2 55-59 1:48:48.4
89 Mark Corn Elkhart IN 1889 M 7 55-59 1:49:15.7
90 Wendy Miller Bedford IN 1868 F 5 30-34 1:50:24.2
91 Peter Jamison Indianapolis IN 1123 M 8 55-59 1:50:24.7
92 Doug Trueblood Bloomington IN 1870 M 3 60-64 1:50:25.5
93 Paula Turk Elkhart I IN 1840 F 3 55-59 1:50:31.4
94 Wesley Chinworth North Judson IN 1862 M 9 55-59 1:51:23.4
95 Bronson Pasko Upland IN 1821 M 12 40-44 1:51:57.2
96 Doug Williams Lafayette IN 1841 M 8 45-49 1:52:23.4
97 Josh Williams Carmel IN 1844 M 2 20-24 1:52:23.4
98 Kelly Porter Indianapolis IN 1825 F 6 30-34 1:52:45.7
99 Kaitlin Guidarelli Bloomington IN 1867 F 2 25-29 1:52:57.8
100 Rick Seltzer Bloomington IN 1915 M 8 25-29 1:53:22.7
 
Place Name City Bib No Gender Age Group Total Time
101 Jeanne Bishop Twin Lakes WI 1891 F 4 40-44 1:54:03.7
102 Connie Cummins Hayward WI 1876 F 1 50-54 1:54:25.2
103 Terry Tucker Anderson IN 1912 M 10 55-59 1:54:26.6
104 Tony Adrian Indianapolis IN 1937 M 9 50-54 1:55:01.2
105 Dean Saling Louisville KY 1806 M 11 55-59 1:55:16.6
106 Jill Estes Muncie IN 1828 F 2 20-24 1:56:12.7
107 Dick Whicker Danville IN 1902 M 2 65-69 1:59:08.5
108 Mike Eggleton Plainfield IN 1833 M 9 45-49 1:59:25.2
109 Tim Cantrell Avon IN 1815 M 13 40-44 1:59:52.6
110 Amanda Hernandez Fort Wayne IN 1906 F 7 30-34 2:00:12.4
111 Robin Day Bedford IN 1858 F 4 55-59 2:00:21.8
112 Ken Barnes Bedford IN 1888 M 4 60-64 2:00:23.5
113 Elizabeth Eaken North Vernon IN 1851 F 5 35-39 2:00:24.3
114 Jennifer McCracken Indianapolis IN 1147 F 8 30-34 2:01:08.7
115 Anthony Williams Martinsville IN 1810 M 10 45-49 2:02:54.7
116 Christina Victor Bloomington IN 1410 F 5 40-44 2:03:32.2
117 Cynthia Martinez Bloomington IN 1924 F 3 25-29 2:03:35.3
118 April Polly Greenfield IN 1919 F 6 35-39 2:03:43.6
119 Marion Rogers Indianapolis IN 1920 F 6 40-44 2:03:44.2
120 Richard Aikman Zionsville IN 1921 M 3 65-69 2:03:54.8
121 Amber Hamlyn Anderson IN 1875 F 4 25-29 2:05:24.3
122 Chris Hamlyn Anderson IN 1874 M 9 25-29 2:05:25.5
123 Stephen Bartlett Indianapolis IN 1883 M 10 50-54 2:05:45.5
124 Julianne Hutson Floyds Knobs IN 1926 F 2 50-54 2:10:38.0
125 Amy Paul Martinsville IN 1811 F 7 35-39 2:10:54.0
126 Jessica Johnston West Lafayette IN 1431 F 1 45-49 2:11:02.0
127 Kc Forthofer Bloomington IN 1809 F 7 40-44 2:13:01.0
128 Jamie Hackett Humboldt IL 1882 F 9 30-34 2:13:13.0
129 Jeremy Lusk Norman OK 1827 M 10 25-29 2:13:30.9
130 Mark Haendel Santa Monica CA 1819 M 4 65-69 2:16:21.8
131 Gary Reising Greenwood IN 1864 M 11 50-54 2:16:34.4
132 Ryan Bultemeier Fort Wayne IN 1843 M 14 40-44 2:16:53.1
133 Wrayjean Fincher Anderson IN 1838 F 3 50-54 2:19:16.0
134 Lauren Lusk Bloomington IN 1936 F 5 25-29 2:31:59.1
135 Cory Moneymaker Louisville KY 1808 M 11 25-29 2:35:36.7
136 Brittany Moneymaker Louisville KY 1807 F 6 25-29 2:35:44.8
137 Eric Johnson Carmel IN 1849 M 5 60-64 2:41:54.5
138 Fred Ross Warsaw IN 1114 M 1 70-74 2:56:02.2
DQ Curt Chambers Hillsboro IN 1846 M DQ 50-54 1:01:55.3
DQ Brittany Cook Plainfield IN 1865 F DQ 25-29